Time;durP1;ratioP1;P1;durP2;ratioP2;P2;SDS_P1;SDS_P2;PMS_P1;PMS_P2;Temp;Humidity;BMP_temperature;BMP_pressure;BME280_temperature;BME280_humidity;BME280_pressure;Samples;Min_cycle;Max_cycle;Signal;HPM_P1;HPM_P2
2022/01/15 00:01:33;;;;;;;0.70;0.70;;;;;;;17.64;45.54;103268.09;5043364;28;20041;-45
2022/01/15 00:03:58;;;;;;;0.70;0.70;;;;;;;17.62;45.44;103254.72;5027871;28;20799;-42
2022/01/15 00:06:23;;;;;;;0.73;0.60;;;;;;;17.62;45.51;103254.72;5029584;28;20108;-42
2022/01/15 00:08:48;;;;;;;0.70;0.70;;;;;;;17.62;45.52;103252.03;5028405;28;20064;-42
2022/01/15 00:11:13;;;;;;;0.90;0.90;;;;;;;17.61;45.72;103254.84;5046965;28;20542;-42
2022/01/15 00:13:41;;;;;;;0.55;0.55;;;;;;;17.59;45.48;103254.09;5047251;28;20525;-46
2022/01/15 00:16:14;;;;;;;0.70;0.68;;;;;;;17.61;45.51;103249.47;5046969;28;20029;-44
2022/01/15 00:18:59;;;;;;;0.60;0.60;;;;;;;17.59;45.44;103246.88;5046912;28;20033;-42
2022/01/15 00:21:26;;;;;;;0.88;0.60;;;;;;;17.58;45.39;103245.13;5046444;28;20025;-46
2022/01/15 00:23:51;;;;;;;0.85;0.85;;;;;;;17.55;45.42;103234.59;5032350;28;20033;-42
2022/01/15 00:26:16;;;;;;;0.57;0.55;;;;;;;17.57;45.56;103232.66;5026948;28;20041;-43
2022/01/15 00:28:42;;;;;;;0.70;0.70;;;;;;;17.57;45.59;103243.41;5041858;28;20036;-43
2022/01/15 00:31:07;;;;;;;3.55;0.80;;;;;;;17.56;45.62;103241.69;5066472;28;20361;-44
2022/01/15 00:33:32;;;;;;;0.80;0.80;;;;;;;17.56;45.55;103239.00;5066435;28;20084;-44
2022/01/15 00:35:58;;;;;;;0.60;0.60;;;;;;;17.56;45.50;103240.84;5066574;28;20032;-42
2022/01/15 00:38:23;;;;;;;0.70;0.70;;;;;;;17.54;45.62;103246.31;5065634;28;20029;-40
2022/01/15 00:40:48;;;;;;;0.60;0.60;;;;;;;17.54;45.55;103238.22;5066245;28;20497;-43
2022/01/15 00:43:13;;;;;;;0.75;0.70;;;;;;;17.54;45.37;103237.38;5066600;28;20036;-43
2022/01/15 00:45:39;;;;;;;0.73;0.65;;;;;;;17.53;45.49;103236.53;5066496;28;20079;-43
2022/01/15 00:48:04;;;;;;;0.60;0.60;;;;;;;17.47;45.63;103229.72;5066380;28;20036;-43
2022/01/15 00:50:29;;;;;;;0.57;0.57;;;;;;;17.50;45.53;103236.75;5048351;28;20489;-42
2022/01/15 00:52:55;;;;;;;0.70;0.70;;;;;;;17.48;45.67;103231.44;5051233;28;20033;-43
2022/01/15 00:55:20;;;;;;;0.70;0.70;;;;;;;17.48;45.54;103226.06;5045407;28;20106;-45
2022/01/15 00:57:46;;;;;;;0.70;0.70;;;;;;;17.47;45.59;103213.59;5046296;28;20029;-43
2022/01/15 01:00:17;;;;;;;0.90;0.68;;;;;;;17.42;45.53;103207.66;5044627;28;20021;-48
2022/01/15 01:02:42;;;;;;;0.70;0.70;;;;;;;17.45;45.72;103223.59;5026494;28;20022;-45
2022/01/15 01:05:08;;;;;;;0.60;0.60;;;;;;;17.45;45.52;103230.78;5026088;28;20022;-43
2022/01/15 01:07:34;;;;;;;0.70;0.70;;;;;;;17.43;45.51;103225.53;5026831;28;20022;-46
2022/01/15 01:20:57;;;;;;;0.70;0.70;;;;;;;17.40;45.56;103217.66;5045887;28;20637;-42
2022/01/15 01:23:23;;;;;;;0.70;0.70;;;;;;;17.40;45.67;103193.44;5027032;28;20034;-41
2022/01/15 01:25:53;;;;;;;0.80;0.80;;;;;;;17.39;45.47;103172.91;5022936;28;20060;-45
2022/01/15 01:30:58;;;;;;;0.80;0.80;;;;;;;17.38;45.65;103199.91;5064383;28;20033;-44
2022/01/15 01:33:32;;;;;;;1.05;0.90;;;;;;;17.36;45.45;103204.50;5065551;28;20021;-42
2022/01/15 01:36:34;;;;;;;0.70;0.70;;;;;;;17.37;45.58;103208.91;5065385;28;20025;-44
2022/01/15 01:39:05;;;;;;;0.80;0.80;;;;;;;17.34;45.54;103183.13;5056391;28;20083;-43
2022/01/15 01:41:35;;;;;;;0.70;0.70;;;;;;;17.34;45.69;103174.19;5065446;28;20028;-44
2022/01/15 01:44:03;;;;;;;0.80;0.65;;;;;;;17.34;45.56;103187.63;5057687;28;20035;-44
2022/01/15 01:48:55;;;;;;;0.70;0.70;;;;;;;17.33;45.50;103199.34;5044699;28;20029;-46
2022/01/15 01:51:34;;;;;;;0.63;0.63;;;;;;;17.32;45.60;103187.72;5045258;28;20025;-45
2022/01/15 01:54:02;;;;;;;0.80;0.80;;;;;;;17.27;45.49;103170.19;5044502;28;20040;-48
2022/01/15 01:56:27;;;;;;;0.63;0.63;;;;;;;17.30;45.62;103162.78;5045103;28;20036;-45
2022/01/15 01:58:53;;;;;;;0.70;0.70;;;;;;;17.29;45.56;103179.00;5044989;28;20081;-45
2022/01/15 02:01:18;;;;;;;0.70;0.68;;;;;;;17.29;45.52;103176.31;5045226;28;20092;-43
2022/01/15 02:03:43;;;;;;;0.70;0.70;;;;;;;17.28;45.50;103175.44;5027119;28;20053;-45
2022/01/15 02:06:09;;;;;;;0.80;0.80;;;;;;;17.24;45.58;103173.94;5044946;28;20030;-42
2022/01/15 02:08:35;;;;;;;0.65;0.65;;;;;;;17.27;45.53;103172.88;5043912;28;20032;-47
2022/01/15 02:11:03;;;;;;;0.75;0.70;;;;;;;17.24;45.52;103163.16;5044668;28;20025;-47
2022/01/15 02:13:29;;;;;;;0.90;0.70;;;;;;;17.26;45.49;103165.78;5044966;28;20081;-46
2022/01/15 02:15:58;;;;;;;0.70;0.70;;;;;;;17.25;45.45;103159.53;5044709;28;20025;-43
2022/01/15 02:18:25;;;;;;;0.85;0.85;;;;;;;17.25;45.58;103167.63;5030591;28;20577;-48
2022/01/15 02:23:33;;;;;;;0.60;0.60;;;;;;;17.22;45.55;103162.44;5024241;28;20034;-44
2022/01/15 02:26:04;;;;;;;0.60;0.60;;;;;;;17.21;45.61;103153.50;5006814;28;20085;-44
2022/01/15 02:28:32;;;;;;;0.75;0.60;;;;;;;17.18;45.49;103145.63;5030181;28;20018;-46
2022/01/15 02:31:06;;;;;;;0.70;0.70;;;;;;;17.22;45.56;103151.69;5034766;28;20083;-43
2022/01/15 02:33:32;;;;;;;0.68;0.68;;;;;;;17.15;45.71;103151.22;5060820;28;20013;-43
2022/01/15 02:35:58;;;;;;;0.70;0.70;;;;;;;17.19;45.67;103152.72;5064275;28;20032;-47
2022/01/15 02:38:23;;;;;;;0.77;0.77;;;;;;;17.18;45.45;103147.47;5063392;28;20052;-43
2022/01/15 02:40:49;;;;;;;0.82;0.80;;;;;;;17.17;45.44;103145.75;5064174;28;20025;-44
2022/01/15 02:43:18;;;;;;;0.70;0.70;;;;;;;17.17;45.59;103137.69;5064397;28;20032;-46
2022/01/15 02:45:46;;;;;;;0.60;0.60;;;;;;;17.16;45.59;103134.13;5064335;28;20017;-43
2022/01/15 02:48:17;;;;;;;0.60;0.60;;;;;;;17.15;45.53;103135.09;5050960;28;20031;-45
2022/01/15 02:50:44;;;;;;;0.70;0.70;;;;;;;17.15;45.54;103132.41;5024221;28;20026;-47
2022/01/15 02:53:11;;;;;;;0.77;0.70;;;;;;;17.13;45.54;103128.97;5024016;28;20097;-44
2022/01/15 02:55:41;;;;;;;0.70;0.70;;;;;;;17.14;45.56;103128.00;5023635;28;20033;-46
2022/01/15 02:58:07;;;;;;;0.60;0.60;;;;;;;17.12;45.62;103129.03;5024390;28;20033;-43
2022/01/15 03:00:32;;;;;;;0.60;0.60;;;;;;;17.11;45.63;103128.19;5024309;28;20096;-46
2022/01/15 03:02:57;;;;;;;0.70;0.70;;;;;;;17.12;45.58;103129.03;5024048;28;20034;-44
2022/01/15 03:05:22;;;;;;;0.60;0.60;;;;;;;17.12;45.69;103134.41;5023811;28;20021;-44
2022/01/15 03:07:48;;;;;;;0.60;0.60;;;;;;;17.10;45.67;103126.47;5023873;28;20033;-42
2022/01/15 03:10:13;;;;;;;0.80;0.80;;;;;;;17.11;45.65;103119.25;5021976;28;20030;-44
2022/01/15 03:12:38;;;;;;;0.70;0.70;;;;;;;17.10;45.67;103120.25;5025156;28;20034;-45
2022/01/15 03:15:06;;;;;;;0.70;0.70;;;;;;;17.10;45.63;103110.34;5023766;28;20120;-45
2022/01/15 03:17:32;;;;;;;0.80;0.80;;;;;;;17.10;45.69;103112.19;5033798;28;20057;-46
2022/01/15 03:19:57;;;;;;;0.93;0.93;;;;;;;17.07;45.64;103102.47;5043476;28;20029;-43
2022/01/15 03:22:22;;;;;;;0.80;0.80;;;;;;;17.06;45.58;103100.75;5043603;28;20038;-43
2022/01/15 03:24:49;;;;;;;0.80;0.80;;;;;;;17.06;45.64;103099.91;5042839;28;20028;-44
2022/01/15 03:27:14;;;;;;;0.70;0.70;;;;;;;17.04;45.54;103091.97;5025707;28;20025;-48
2022/01/15 03:29:39;;;;;;;0.60;0.60;;;;;;;17.05;45.57;103084.75;5032231;28;20052;-44
2022/01/15 03:32:05;;;;;;;0.68;0.68;;;;;;;17.03;45.66;103076.78;5045493;28;20420;-42
2022/01/15 03:34:31;;;;;;;0.80;0.80;;;;;;;17.04;45.99;103080.34;5063171;28;20574;-42
2022/01/15 03:36:56;;;;;;;0.80;0.80;;;;;;;17.02;45.98;103079.56;5063106;28;20036;-43
2022/01/15 03:39:22;;;;;;;0.80;0.77;;;;;;;17.02;45.64;103079.56;5061998;28;20049;-45
2022/01/15 03:41:47;;;;;;;0.70;0.70;;;;;;;17.00;45.68;103074.31;5063423;28;20028;-43
2022/01/15 03:44:12;;;;;;;0.70;0.70;;;;;;;16.99;45.61;103070.78;5034431;28;20033;-44
2022/01/15 03:46:37;;;;;;;0.80;0.80;;;;;;;16.99;45.62;103067.19;5005915;28;20033;-46
2022/01/15 03:49:03;;;;;;;0.80;0.80;;;;;;;16.98;45.68;103062.78;5023441;28;20033;-43
2022/01/15 03:51:28;;;;;;;0.80;0.80;;;;;;;16.97;45.64;103067.31;5023776;28;20030;-42
2022/01/15 03:53:53;;;;;;;1.38;1.00;;;;;;;16.97;45.64;103064.63;5022807;28;20087;-43
2022/01/15 03:56:18;;;;;;;0.75;0.70;;;;;;;16.94;45.65;103054.06;5023422;28;20125;-43
2022/01/15 03:58:43;;;;;;;0.70;0.70;;;;;;;16.96;45.92;103056.69;5023529;28;20065;-46
2022/01/15 04:01:09;;;;;;;0.98;0.80;;;;;;;16.95;45.49;103046.91;5023461;28;20038;-43
2022/01/15 04:03:34;;;;;;;0.70;0.70;;;;;;;16.96;45.70;103059.38;5023225;28;20045;-44
2022/01/15 04:05:59;;;;;;;0.85;0.80;;;;;;;16.94;45.69;103050.53;4986246;28;20031;-42
2022/01/15 04:08:24;;;;;;;0.90;0.90;;;;;;;16.94;45.58;103056.75;5000687;28;20445;-42
2022/01/15 04:10:50;;;;;;;0.77;0.77;;;;;;;16.93;45.53;103046.13;5023167;28;20073;-45
2022/01/15 04:13:15;;;;;;;1.08;0.90;;;;;;;16.93;45.72;103043.44;5005765;28;20069;-43
2022/01/15 04:15:42;;;;;;;0.70;0.70;;;;;;;16.93;45.60;103040.75;5022702;28;20033;-44
2022/01/15 04:18:07;;;;;;;2.05;1.02;;;;;;;16.92;45.81;103044.41;5023378;28;20026;-44
2022/01/15 04:20:33;;;;;;;0.82;0.80;;;;;;;16.91;45.68;103043.56;5023110;28;20379;-44
2022/01/15 04:22:58;;;;;;;1.05;0.77;;;;;;;16.88;45.66;103042.88;5005880;28;20022;-44
2022/01/15 04:25:23;;;;;;;0.70;0.70;;;;;;;16.89;45.69;103048.16;5022646;28;20483;-45
2022/01/15 04:27:49;;;;;;;0.73;0.73;;;;;;;16.88;45.63;103051.81;5023030;28;20022;-45
2022/01/15 04:30:16;;;;;;;0.80;0.80;;;;;;;16.88;45.76;103042.88;5056730;28;20071;-42
2022/01/15 04:32:41;;;;;;;0.80;0.80;;;;;;;16.86;45.82;103044.81;5062892;28;20351;-43
2022/01/15 04:35:07;;;;;;;0.68;0.68;;;;;;;16.86;45.66;103048.34;5062677;28;20505;-43
2022/01/15 04:37:43;;;;;;;0.60;0.60;;;;;;;16.86;45.69;103048.34;5062769;28;20033;-43
2022/01/15 04:40:10;;;;;;;0.82;0.82;;;;;;;16.86;45.61;103050.19;5061959;28;20049;-41
2022/01/15 04:42:35;;;;;;;0.75;0.75;;;;;;;16.80;45.54;103040.72;5052282;28;20050;-42
2022/01/15 04:45:03;;;;;;;0.90;0.80;;;;;;;16.84;45.68;103041.38;5023216;28;20082;-44
2022/01/15 04:47:29;;;;;;;0.80;0.80;;;;;;;16.83;45.72;103036.97;5006005;28;20029;-45
2022/01/15 04:49:55;;;;;;;0.90;0.90;;;;;;;16.83;45.66;103036.97;5023537;28;20088;-44
2022/01/15 04:52:22;;;;;;;0.77;0.77;;;;;;;16.82;45.59;103036.13;5005796;28;20101;-44
2022/01/15 04:54:47;;;;;;;0.90;0.90;;;;;;;16.82;45.71;103027.16;5024448;28;20018;-43
2022/01/15 04:57:12;;;;;;;0.80;0.80;;;;;;;16.81;45.59;103030.81;5026479;28;20497;-46
2022/01/15 04:59:38;;;;;;;1.00;0.77;;;;;;;16.80;45.73;103032.66;5026487;28;20041;-47
2022/01/15 05:02:03;;;;;;;0.60;0.60;;;;;;;16.73;45.77;103020.59;5026275;28;20033;-46
2022/01/15 05:04:28;;;;;;;0.90;0.90;;;;;;;16.79;45.46;103038.13;5026186;28;20029;-45
2022/01/15 05:06:53;;;;;;;0.70;0.70;;;;;;;16.79;45.79;103032.78;5026127;28;20085;-44
2022/01/15 05:09:19;;;;;;;0.73;0.73;;;;;;;16.78;45.74;103028.34;5025526;28;20466;-43
2022/01/15 05:11:47;;;;;;;1.02;0.80;;;;;;;16.72;45.79;103014.34;5026378;28;20111;-44
2022/01/15 05:14:14;;;;;;;0.80;0.80;;;;;;;16.77;45.72;103016.72;5039305;28;20063;-42
2022/01/15 05:16:39;;;;;;;0.80;0.80;;;;;;;16.76;45.59;103027.59;5045940;28;20030;-44
2022/01/15 05:19:05;;;;;;;0.80;0.80;;;;;;;16.72;45.71;103017.03;5045901;28;20089;-45
2022/01/15 05:21:31;;;;;;;0.80;0.70;;;;;;;16.76;45.73;103023.06;5045993;28;20025;-43
2022/01/15 05:23:56;;;;;;;1.00;0.70;;;;;;;16.76;45.67;103014.16;5045110;28;20041;-45
2022/01/15 05:26:22;;;;;;;0.70;0.70;;;;;;;16.76;45.67;103017.72;5045777;28;20040;-43
2022/01/15 05:28:47;;;;;;;0.70;0.70;;;;;;;16.71;45.77;103015.31;5041269;28;20053;-47
2022/01/15 05:31:13;;;;;;;0.70;0.70;;;;;;;16.76;45.62;103024.91;5064213;28;20465;-47
2022/01/15 05:33:38;;;;;;;0.80;0.80;;;;;;;16.74;45.73;103022.34;5065556;28;20036;-42
2022/01/15 05:36:03;;;;;;;0.63;0.63;;;;;;;16.73;45.81;103017.91;5065494;28;20040;-43
2022/01/15 05:38:29;;;;;;;0.70;0.70;;;;;;;16.74;45.69;103017.81;5064673;28;20033;-42
2022/01/15 05:40:54;;;;;;;0.80;0.80;;;;;;;16.75;45.55;103013.31;5065444;28;20095;-42
2022/01/15 05:43:20;;;;;;;0.70;0.70;;;;;;;16.73;45.62;103016.06;5051631;28;20048;-44
2022/01/15 05:45:45;;;;;;;0.77;0.77;;;;;;;16.72;45.54;103011.66;5045712;28;20018;-43
2022/01/15 05:48:10;;;;;;;0.57;0.57;;;;;;;16.73;45.57;103010.69;5045425;28;20033;-43
2022/01/15 05:50:36;;;;;;;0.75;0.75;;;;;;;16.73;45.65;103009.84;5011037;28;20069;-43
2022/01/15 05:53:01;;;;;;;0.70;0.70;;;;;;;16.72;45.64;103008.97;5027772;28;20044;-42
2022/01/15 05:55:26;;;;;;;0.70;0.70;;;;;;;16.72;45.74;103005.41;5026800;28;20057;-45
2022/01/15 05:57:52;;;;;;;0.80;0.80;;;;;;;16.71;45.62;103007.25;5045038;28;20036;-42
2022/01/15 06:00:17;;;;;;;0.70;0.70;;;;;;;16.72;45.61;103000.03;5045077;28;20025;-44
2022/01/15 06:02:43;;;;;;;0.70;0.70;;;;;;;16.71;45.46;103004.56;5044840;28;20030;-43
2022/01/15 06:05:09;;;;;;;0.80;0.80;;;;;;;16.66;45.68;102990.56;5025797;28;20029;-43
2022/01/15 06:07:34;;;;;;;0.85;0.85;;;;;;;16.72;45.85;102991.97;5041203;28;20075;-42
2022/01/15 06:09:59;;;;;;;0.95;0.95;;;;;;;16.66;45.66;102977.16;5026442;28;20021;-45
2022/01/15 06:12:30;;;;;;;0.73;0.73;;;;;;;16.66;45.64;102982.53;5010082;28;20017;-45
2022/01/15 06:14:56;;;;;;;0.80;0.80;;;;;;;16.65;45.63;102979.91;5044231;28;20029;-44
2022/01/15 06:17:21;;;;;;;0.80;0.80;;;;;;;16.70;45.71;102991.25;5044029;28;20045;-45
2022/01/15 06:19:46;;;;;;;0.73;0.73;;;;;;;16.70;45.76;102981.34;5043855;28;20095;-45
2022/01/15 06:22:12;;;;;;;0.70;0.70;;;;;;;16.70;45.87;102977.81;5043822;28;20029;-44
2022/01/15 06:24:37;;;;;;;0.77;0.77;;;;;;;16.69;45.78;102976.94;5043147;28;20013;-44
2022/01/15 06:27:02;;;;;;;0.80;0.80;;;;;;;16.69;45.80;102978.75;5025826;28;20044;-43
2022/01/15 06:29:28;;;;;;;0.70;0.70;;;;;;;16.70;45.86;102975.13;5025848;28;20036;-41
2022/01/15 06:31:54;;;;;;;0.88;0.88;;;;;;;16.69;45.85;102968.91;5043819;28;20089;-44
2022/01/15 06:34:19;;;;;;;1.00;1.00;;;;;;;16.63;45.82;102958.53;5043544;28;20040;-45
2022/01/15 06:36:45;;;;;;;1.02;0.82;;;;;;;16.71;45.90;102966.09;5043524;28;20025;-43
2022/01/15 06:39:10;;;;;;;0.70;0.70;;;;;;;16.66;45.93;102952.97;5042666;28;20033;-45
2022/01/15 06:41:35;;;;;;;0.70;0.70;;;;;;;16.67;45.86;102946.63;5042807;28;20028;-46
2022/01/15 06:44:01;;;;;;;0.73;0.73;;;;;;;16.72;45.96;102949.00;5042162;28;20029;-44
2022/01/15 06:46:26;;;;;;;0.80;0.80;;;;;;;16.66;46.08;102950.28;5042028;28;20055;-48
2022/01/15 06:48:51;;;;;;;0.70;0.70;;;;;;;16.70;46.00;102954.50;5043651;28;20029;-44
2022/01/15 06:51:16;;;;;;;1.15;1.02;;;;;;;16.69;46.18;102955.47;5025683;28;20053;-43
2022/01/15 06:53:42;;;;;;;1.08;0.90;;;;;;;16.69;46.03;102950.09;5042911;28;20021;-43
2022/01/15 06:56:07;;;;;;;1.10;1.00;;;;;;;16.69;46.20;102951.88;5043161;28;20079;-44
2022/01/15 06:58:32;;;;;;;0.85;0.85;;;;;;;16.63;46.23;102944.25;5025977;28;20021;-45
2022/01/15 07:00:57;;;;;;;0.82;0.82;;;;;;;16.64;46.41;102945.97;5043513;28;20460;-46
2022/01/15 07:03:23;;;;;;;1.10;1.10;;;;;;;16.66;46.11;102944.91;5043007;28;20063;-44
2022/01/15 07:05:48;;;;;;;0.80;0.80;;;;;;;16.67;46.32;102946.63;5009197;28;20067;-47
2022/01/15 07:08:13;;;;;;;0.85;0.80;;;;;;;16.69;46.41;102938.47;5042950;28;20028;-47
2022/01/15 07:10:41;;;;;;;0.73;0.70;;;;;;;16.68;46.41;102948.34;5025245;28;20021;-44
2022/01/15 07:13:06;;;;;;;0.80;0.80;;;;;;;16.68;46.42;102945.66;5042407;28;20080;-44
2022/01/15 07:15:32;;;;;;;0.95;0.93;;;;;;;16.65;46.54;102937.84;5025619;28;20033;-45
2022/01/15 07:17:59;;;;;;;0.80;0.80;;;;;;;16.65;46.38;102931.56;5043390;28;20034;-46
2022/01/15 07:20:25;;;;;;;0.73;0.73;;;;;;;16.69;46.49;102936.66;5025539;28;20033;-42
2022/01/15 07:22:50;;;;;;;0.80;0.80;;;;;;;16.69;46.47;102927.72;5040561;28;20513;-47
2022/01/15 07:25:15;;;;;;;1.13;0.90;;;;;;;16.69;46.34;102933.09;5042181;28;20089;-44
2022/01/15 07:27:40;;;;;;;1.10;1.00;;;;;;;16.65;46.21;102924.41;5042785;28;20049;-45
2022/01/15 07:30:07;;;;;;;0.98;0.90;;;;;;;16.67;46.55;102929.66;5047682;28;20396;-48
2022/01/15 07:32:32;;;;;;;1.10;1.00;;;;;;;16.69;46.73;102943.81;5047819;28;20032;-46
2022/01/15 07:34:58;;;;;;;1.15;1.02;;;;;;;16.64;46.57;102927.19;5042679;28;20038;-45
2022/01/15 07:37:24;;;;;;;1.65;1.27;;;;;;;16.73;46.61;102931.94;5042539;28;20021;-48
2022/01/15 07:39:49;;;;;;;1.35;1.25;;;;;;;16.72;46.58;102936.47;5041530;28;20038;-47
2022/01/15 07:42:14;;;;;;;1.00;0.90;;;;;;;16.72;46.57;102930.19;5042667;28;20105;-45
2022/01/15 07:44:40;;;;;;;1.23;1.13;;;;;;;16.81;46.52;102942.16;5008936;28;20036;-43
2022/01/15 07:47:05;;;;;;;1.63;1.35;;;;;;;16.77;46.28;102941.50;5042233;28;20029;-45
2022/01/15 07:49:32;;;;;;;1.25;1.15;;;;;;;16.83;46.45;102942.94;5009257;28;20025;-45
2022/01/15 07:51:58;;;;;;;1.95;1.48;;;;;;;16.86;46.31;102948.09;5014255;28;20064;-45
2022/01/15 07:54:23;;;;;;;3.25;1.42;;;;;;;16.86;46.36;102948.94;5037837;28;20037;-48
2022/01/15 07:56:48;;;;;;;1.70;1.38;;;;;;;16.84;46.42;102941.97;5043177;28;20025;-45
2022/01/15 07:59:13;;;;;;;1.50;1.25;;;;;;;16.89;46.47;102947.88;5043241;28;20029;-46
2022/01/15 08:01:39;;;;;;;1.30;1.15;;;;;;;16.85;46.41;102944.53;5011380;28;20588;-45
2022/01/15 08:04:04;;;;;;;1.38;1.27;;;;;;;16.88;46.41;102944.34;5042411;28;20454;-47
2022/01/15 08:06:29;;;;;;;1.50;1.40;;;;;;;16.86;46.42;102935.50;5024791;28;20552;-45
2022/01/15 08:08:55;;;;;;;1.65;1.40;;;;;;;16.90;46.38;102937.00;5041337;28;20040;-48
2022/01/15 08:11:20;;;;;;;1.70;1.60;;;;;;;16.89;46.51;102946.06;5024962;28;20025;-47
2022/01/15 08:13:45;;;;;;;1.52;1.40;;;;;;;16.83;46.66;102933.06;5024886;28;20030;-46
2022/01/15 08:16:10;;;;;;;2.03;1.40;;;;;;;16.92;46.47;102939.63;5025376;28;20033;-47
2022/01/15 08:18:36;;;;;;;1.73;1.30;;;;;;;16.91;46.41;102935.22;5042174;28;20041;-44
2022/01/15 08:21:03;;;;;;;1.48;1.30;;;;;;;16.87;46.75;102929.19;5024758;28;20021;-43
2022/01/15 08:23:29;;;;;;;1.65;1.30;;;;;;;16.88;46.41;102932.72;5042006;28;20021;-43
2022/01/15 08:25:54;;;;;;;1.35;1.25;;;;;;;16.83;46.58;102913.38;5046372;28;20097;-44
2022/01/15 08:28:19;;;;;;;1.42;1.30;;;;;;;16.87;46.50;102921.13;5046417;28;20274;-46
2022/01/15 08:30:45;;;;;;;1.88;1.33;;;;;;;16.91;46.45;102922.63;5056276;28;20056;-47
2022/01/15 08:33:10;;;;;;;2.28;1.52;;;;;;;16.89;46.38;102913.81;5031825;28;20136;-47
2022/01/15 08:35:36;;;;;;;1.48;1.38;;;;;;;16.86;46.51;102905.94;5031354;28;20033;-42
2022/01/15 08:38:04;;;;;;;1.50;1.38;;;;;;;16.94;46.44;102921.53;5006885;28;20033;-44
2022/01/15 08:40:32;;;;;;;1.95;1.40;;;;;;;16.94;46.45;102917.03;5025804;28;20445;-45
2022/01/15 08:42:58;;;;;;;1.80;1.63;;;;;;;16.94;46.41;102908.97;5008817;28;20105;-44
2022/01/15 08:45:23;;;;;;;2.13;1.70;;;;;;;16.88;46.56;102903.19;5026887;28;20018;-45
2022/01/15 08:47:49;;;;;;;1.67;1.52;;;;;;;16.94;46.38;102918.84;5026200;28;20060;-46
2022/01/15 08:50:15;;;;;;;2.35;1.40;;;;;;;16.92;46.32;102913.59;5023907;28;20029;-45
2022/01/15 08:52:41;;;;;;;1.83;1.50;;;;;;;16.94;46.42;102910.78;5006465;28;20030;-44
2022/01/15 08:55:07;;;;;;;1.73;1.58;;;;;;;16.94;46.29;102916.16;5025561;28;20038;-46
2022/01/15 08:57:33;;;;;;;1.50;1.33;;;;;;;16.95;46.36;102907.16;5034376;28;20064;-45
2022/01/15 08:59:59;;;;;;;1.40;1.30;;;;;;;16.93;46.13;102907.25;5046170;28;20029;-43
2022/01/15 09:02:25;;;;;;;1.60;1.50;;;;;;;16.92;46.25;102902.84;5008293;28;20110;-45
2022/01/15 09:04:50;;;;;;;2.10;1.48;;;;;;;16.97;46.15;102911.44;5044040;28;20018;-45
2022/01/15 09:07:15;;;;;;;1.33;1.23;;;;;;;16.91;45.98;102905.66;5038992;28;20029;-45
2022/01/15 09:09:41;;;;;;;1.77;1.45;;;;;;;16.96;46.09;102911.56;5045043;28;20029;-45
2022/01/15 09:12:07;;;;;;;1.67;1.40;;;;;;;16.97;46.11;102910.59;5045766;28;20097;-45
2022/01/15 09:14:32;;;;;;;2.67;1.33;;;;;;;16.95;46.05;102904.47;5012726;28;20042;-43
2022/01/15 09:16:57;;;;;;;1.88;1.55;;;;;;;16.98;45.89;102904.25;5037911;28;20021;-46
2022/01/15 09:19:23;;;;;;;1.30;1.20;;;;;;;17.02;46.02;102904.91;5035898;28;20742;-48
2022/01/15 09:21:48;;;;;;;1.88;1.50;;;;;;;16.97;45.62;102900.69;5025788;28;20030;-46
2022/01/15 09:24:13;;;;;;;1.65;1.33;;;;;;;17.02;45.80;102908.44;5023757;28;20101;-46
2022/01/15 09:26:48;;;;;;;1.65;1.45;;;;;;;16.99;45.60;102898.78;5027668;28;20147;-46
2022/01/15 09:32:02;;;;;;;1.90;1.55;;;;;;;17.05;45.63;102912.75;5038026;28;20044;-46
2022/01/15 09:34:28;;;;;;;1.63;1.30;;;;;;;17.05;45.69;102899.31;5043427;28;20385;-46
2022/01/15 09:36:53;;;;;;;1.40;1.30;;;;;;;17.05;45.59;102902.00;5025184;28;20060;-46
2022/01/15 09:39:20;;;;;;;1.10;1.00;;;;;;;17.05;45.42;102897.47;5024889;28;20061;-49
2022/01/15 09:41:47;;;;;;;1.30;1.20;;;;;;;17.03;45.57;102903.91;5017963;28;20044;-48
2022/01/15 09:44:13;;;;;;;1.50;1.20;;;;;;;17.04;45.77;102889.53;5011921;28;20079;-45
2022/01/15 09:46:39;;;;;;;1.50;1.40;;;;;;;17.05;45.80;102891.25;5043898;28;20198;-47
2022/01/15 09:49:06;;;;;;;1.70;1.48;;;;;;;17.10;45.61;102891.78;5027140;28;20037;-47
2022/01/15 09:51:31;;;;;;;1.40;1.25;;;;;;;17.05;45.50;102885.88;5025915;28;20032;-46
2022/01/15 09:53:56;;;;;;;1.63;1.20;;;;;;;17.10;45.38;102892.63;5007379;28;20030;-43
2022/01/15 09:56:22;;;;;;;1.48;1.38;;;;;;;17.12;45.42;102892.50;5024997;28;20038;-48
2022/01/15 09:58:47;;;;;;;1.65;1.35;;;;;;;17.12;45.52;102889.81;5025412;28;20040;-44
2022/01/15 10:01:12;;;;;;;1.35;1.20;;;;;;;17.13;45.40;102894.25;5025176;28;20036;-46
2022/01/15 10:03:37;;;;;;;1.77;1.45;;;;;;;17.14;45.50;102899.50;5024939;28;20052;-49
2022/01/15 10:06:04;;;;;;;1.52;1.42;;;;;;;17.12;45.55;102882.66;5039982;28;20025;-46
2022/01/15 10:08:29;;;;;;;1.80;1.40;;;;;;;17.14;45.27;102896.81;5006817;28;20061;-42
2022/01/15 10:10:58;;;;;;;1.58;1.48;;;;;;;17.15;45.34;102890.47;5018579;28;20029;-44
2022/01/15 10:13:25;;;;;;;1.88;1.48;;;;;;;17.16;45.38;102888.66;5044862;28;20040;-43
2022/01/15 10:16:11;;;;;;;1.50;1.40;;;;;;;17.13;45.38;102873.63;5033363;28;20034;-46
2022/01/15 10:18:44;;;;;;;2.03;1.63;;;;;;;17.18;45.34;102886.72;5006936;28;20037;-43
2022/01/15 10:21:22;;;;;;;1.60;1.38;;;;;;;17.19;45.31;102881.22;5021346;28;20045;-44
2022/01/15 10:23:49;;;;;;;1.88;1.35;;;;;;;17.20;45.36;102884.78;5007187;28;20489;-47
2022/01/15 10:26:26;;;;;;;1.67;1.40;;;;;;;17.21;45.30;102894.56;5038180;28;20021;-46
2022/01/15 10:29:06;;;;;;;1.55;1.45;;;;;;;17.22;45.32;102894.47;5045789;28;20009;-44
2022/01/15 10:31:37;;;;;;;2.05;1.30;;;;;;;17.23;45.35;102890.78;5042108;28;20044;-46
2022/01/15 10:34:22;;;;;;;1.38;1.27;;;;;;;17.24;45.41;102881.75;5043493;28;20044;-43
2022/01/15 10:36:48;;;;;;;1.40;1.30;;;;;;;17.22;45.27;102881.00;5043553;28;20056;-45
2022/01/15 10:39:19;;;;;;;1.40;1.25;;;;;;;17.27;45.13;102880.69;5008735;28;20053;-47
2022/01/15 10:41:46;;;;;;;1.42;1.33;;;;;;;17.20;45.29;102866.84;5042478;28;20034;-45
2022/01/15 10:44:28;;;;;;;1.27;1.17;;;;;;;17.29;45.31;102886.81;5026657;28;20025;-45
2022/01/15 10:47:05;;;;;;;1.42;1.33;;;;;;;17.24;45.20;102879.06;5044161;28;20123;-44
2022/01/15 10:49:30;;;;;;;3.05;1.40;;;;;;;17.30;45.19;102882.31;5044060;28;20057;-47
2022/01/15 10:52:11;;;;;;;1.67;1.30;;;;;;;17.32;45.39;102873.13;5040284;28;20426;-47
2022/01/15 10:55:01;;;;;;;1.85;1.55;;;;;;;17.31;45.40;102867.88;5023850;28;20037;-48
2022/01/15 10:57:56;;;;;;;1.50;1.30;;;;;;;17.33;45.25;102858.75;5032081;28;20033;-45
2022/01/15 11:00:30;;;;;;;1.50;1.40;;;;;;;17.35;45.34;102855.94;5019499;28;20053;-43
2022/01/15 11:03:02;;;;;;;2.13;1.58;;;;;;;17.35;45.21;102846.03;5041988;28;20593;-45
2022/01/15 11:05:29;;;;;;;1.75;1.40;;;;;;;17.35;45.16;102848.72;5006445;28;20046;-42
2022/01/15 11:08:09;;;;;;;1.60;1.38;;;;;;;17.38;45.07;102843.13;5034324;28;20037;-44
2022/01/15 11:10:53;;;;;;;1.27;1.17;;;;;;;17.39;45.15;102841.31;5037976;28;20029;-44
2022/01/15 11:13:22;;;;;;;3.05;1.63;;;;;;;17.35;45.16;102827.22;5043470;28;20366;-42
2022/01/15 11:15:50;;;;;;;2.75;1.40;;;;;;;17.41;45.12;102832.13;5043488;28;20482;-44
2022/01/15 11:18:27;;;;;;;1.50;1.30;;;;;;;17.41;45.15;102833.97;5043357;28;20608;-45
2022/01/15 11:20:55;;;;;;;1.52;1.42;;;;;;;17.44;44.95;102837.28;5043480;28;20074;-43
2022/01/15 11:23:22;;;;;;;1.60;1.50;;;;;;;17.45;45.02;102832.78;5043250;28;20052;-45
2022/01/15 11:25:49;;;;;;;1.50;1.40;;;;;;;17.45;45.06;102830.94;5042544;28;20026;-45
2022/01/15 11:28:16;;;;;;;1.70;1.38;;;;;;;17.46;45.09;102819.25;5039782;28;20036;-42
2022/01/15 11:30:42;;;;;;;1.50;1.35;;;;;;;17.48;44.93;102821.81;5030477;28;20037;-45
2022/01/15 11:33:08;;;;;;;1.40;1.30;;;;;;;17.50;44.86;102817.19;5016068;28;20093;-47
2022/01/15 11:35:40;;;;;;;2.35;1.83;;;;;;;17.52;44.71;102817.06;5021880;28;20482;-44
2022/01/15 11:38:06;;;;;;;1.60;1.50;;;;;;;17.52;44.89;102811.69;5042690;28;20035;-44
2022/01/15 11:40:39;;;;;;;2.40;2.17;;;;;;;17.49;44.93;102802.84;5042273;28;20057;-49
2022/01/15 11:43:23;;;;;;;2.58;2.00;;;;;;;17.55;44.74;102816.84;5043259;28;20033;-45
2022/01/15 11:45:49;;;;;;;2.90;2.25;;;;;;;17.51;44.96;102807.28;5034755;28;20049;-44